createdAt,value
2019-04-22T00:02:26.446Z,11
2019-04-22T00:07:47.761Z,11
2019-04-22T00:12:46.734Z,11
2019-04-22T00:17:44.594Z,10.9
2019-04-22T00:22:37.893Z,10.9
2019-04-22T00:32:30.167Z,10.8
2019-04-22T00:37:28.165Z,10.7
2019-04-22T00:42:27.297Z,10.8
2019-04-22T00:47:27.732Z,10.6
2019-04-22T00:52:21.580Z,10.6
2019-04-22T00:57:15.202Z,10.5
2019-04-22T01:02:20.054Z,11.1
2019-04-22T01:07:11.121Z,10.5
2019-04-22T01:12:13.324Z,10.5
2019-04-22T01:17:05.835Z,10.3
2019-04-22T01:21:57.536Z,10.2
2019-04-22T01:26:53.371Z,10.1
2019-04-22T01:31:36.241Z,9.9
2019-04-22T01:36:47.267Z,9.9
2019-04-22T01:41:59.588Z,10
2019-04-22T01:46:48.936Z,9.9
2019-04-22T01:56:46.513Z,9.8
2019-04-22T02:01:43.435Z,9.8
2019-04-22T02:06:41.941Z,9.8
2019-04-22T02:11:38.713Z,9.8
2019-04-22T02:16:33.525Z,9.7
2019-04-22T02:21:28.016Z,9.6
2019-04-22T02:26:25.177Z,9.5
2019-04-22T02:31:35.501Z,9.5
2019-04-22T02:36:33.775Z,9.4
2019-04-22T02:41:25.940Z,9.5
2019-04-22T02:51:16.144Z,9.4
2019-04-22T02:56:22.534Z,9.3
2019-04-22T03:01:13.222Z,9.3
2019-04-22T03:06:15.214Z,9.3
2019-04-22T03:11:12.324Z,9.2
2019-04-22T03:16:07.404Z,9.2
2019-04-22T03:20:57.662Z,9.2
2019-04-22T03:31:02.891Z,9.1
2019-04-22T03:36:04.233Z,9.1
2019-04-22T03:40:45.966Z,9.1
2019-04-22T03:50:42.151Z,9
2019-04-22T03:55:28.703Z,9
2019-04-22T04:05:37.134Z,8.9
2019-04-22T04:15:29.764Z,8.8
2019-04-22T04:25:26.427Z,8.9
2019-04-22T04:35:29.796Z,8.9
2019-04-22T04:45:31.539Z,8.8
2019-04-22T05:09:51.376Z,8.6
2019-04-22T05:14:45.956Z,8.7
2019-04-22T05:19:56.463Z,8.7
2019-04-22T05:24:34.241Z,8.9
2019-04-22T05:29:35.930Z,8.9
2019-04-22T05:34:27.852Z,8.9
2019-04-22T05:39:20.869Z,9
2019-04-22T05:44:22.029Z,9.1
2019-04-22T05:49:17.597Z,9.7
2019-04-22T05:54:20.740Z,9.1
2019-04-22T05:59:30.606Z,9.2
2019-04-22T06:04:09.442Z,8.9
2019-04-22T06:09:24.141Z,9.4
2019-04-22T06:14:00.759Z,9.5
2019-04-22T06:19:02.542Z,9.5
2019-04-22T06:24:04.439Z,9.4
2019-04-22T06:28:53.082Z,9.7
2019-04-22T06:33:54.227Z,9.8
2019-04-22T06:38:44.703Z,9.9
2019-04-22T06:43:51.336Z,10
2019-04-22T06:48:39.395Z,10.1
2019-04-22T06:53:40.327Z,10.2
2019-04-22T06:58:34.453Z,10.3
2019-04-22T07:03:41.323Z,10.4
2019-04-22T07:13:27.018Z,10.7
2019-04-22T07:18:29.580Z,5.2
2019-04-22T07:23:32.908Z,10.9
2019-04-22T07:28:15.437Z,11.1
2019-04-22T07:33:18.653Z,11.3
2019-04-22T07:38:17.370Z,11.3
2019-04-22T07:43:11.400Z,11.5
2019-04-22T07:48:18.648Z,12.1
2019-04-22T07:53:04.304Z,11.9
2019-04-22T07:57:58.089Z,11.7
2019-04-22T08:02:58.898Z,12.1
2019-04-22T08:07:58.677Z,12.6
2019-04-22T08:12:50.452Z,12.7
2019-04-22T08:17:54.581Z,12.8
2019-04-22T08:22:50.380Z,12.9
2019-04-22T08:27:42.619Z,13.1
2019-04-22T08:32:40.781Z,13.2
2019-04-22T08:37:47.216Z,13.3
2019-04-22T08:42:42.733Z,13.5
2019-04-22T08:47:47.696Z,13.6
2019-04-22T08:52:27.098Z,13.8
2019-04-22T08:57:34.426Z,13.9
2019-04-22T09:02:25.600Z,14.1
2019-04-22T09:07:27.920Z,13.7
2019-04-22T09:12:23.349Z,14.4
2019-04-22T09:17:14.525Z,14
2019-04-22T09:22:10.840Z,14.2
2019-04-22T09:27:09.944Z,14.9
2019-04-22T09:32:26.129Z,14.5
2019-04-22T09:37:11.440Z,10.2
2019-04-22T09:41:56.908Z,15.5
2019-04-22T09:46:59.490Z,15.7
2019-04-22T09:51:51.819Z,16
2019-04-22T09:56:48.890Z,15.7
2019-04-22T10:01:56.667Z,16.8
2019-04-22T10:06:40.180Z,16.9
2019-04-22T10:16:43.422Z,17.4
2019-04-22T10:21:44.076Z,17.1
2019-04-22T10:31:36.735Z,17.9
2019-04-22T10:36:05.777Z,18.1
2019-04-22T10:41:02.709Z,18.2
2019-04-22T10:45:59.919Z,18.2
2019-04-22T10:50:56.867Z,18.3
2019-04-22T10:55:54.348Z,18.4
2019-04-22T11:00:52.236Z,18.6
2019-04-22T11:05:50.573Z,18.1
2019-04-22T11:11:00.034Z,18.4
2019-04-22T11:15:44.613Z,19
2019-04-22T11:20:41.854Z,14.4
2019-04-22T11:25:39.537Z,19.2
2019-04-22T11:30:36.668Z,19.5
2019-04-22T11:35:34.024Z,19.6
2019-04-22T11:40:37.771Z,20
2019-04-22T11:45:29.089Z,20.1
2019-04-22T11:50:24.188Z,20.3
2019-04-22T11:55:20.610Z,20.5
2019-04-22T12:00:18.705Z,20.8
2019-04-22T12:05:15.888Z,20.8
2019-04-22T12:10:22.737Z,21.1
2019-04-22T12:15:10.817Z,21.5
2019-04-22T12:20:10.213Z,21
2019-04-22T12:25:06.256Z,21
2019-04-22T12:30:02.953Z,20.7
2019-04-22T12:34:59.843Z,21.5
2019-04-22T12:39:58.185Z,21.2
2019-04-22T12:44:54.330Z,21.4
2019-04-22T12:49:55.223Z,21.1
2019-04-22T12:54:49.025Z,20.9
2019-04-22T12:59:45.761Z,20.7
2019-04-22T13:04:43.477Z,15.3
2019-04-22T13:09:41.100Z,20.4
2019-04-22T13:14:36.971Z,20.7
2019-04-22T13:19:34.293Z,20.8
2019-04-22T13:24:32.067Z,20.8
2019-04-22T13:29:29.034Z,21
2019-04-22T13:34:33.077Z,21.1
2019-04-22T13:39:23.298Z,21.2
2019-04-22T13:44:20.896Z,20.9
2019-04-22T13:49:49.208Z,20.5
2019-04-22T13:59:22.881Z,20.4
2019-04-22T14:04:10.247Z,20.3
2019-04-22T14:09:07.410Z,20.1
2019-04-22T14:14:05.038Z,20
2019-04-22T14:19:00.494Z,19.8
2019-04-22T14:23:58.495Z,19.8
2019-04-22T14:28:55.671Z,19.8
2019-04-22T14:33:55.665Z,19.8
2019-04-22T14:38:50.125Z,19.6
2019-04-22T14:44:44.886Z,20.1
2019-04-22T14:49:02.491Z,19.5
2019-04-22T14:53:55.053Z,19.4
2019-04-22T14:58:37.666Z,19.2
2019-04-22T15:03:38.113Z,19.1
2019-04-22T15:08:32.969Z,19.4
2019-04-22T15:13:29.462Z,18.9
2019-04-22T15:18:28.293Z,19.3
2019-04-22T15:23:24.789Z,19.3
2019-04-22T15:28:21.860Z,18.7
2019-04-22T15:33:19.393Z,18.6
2019-04-22T15:38:15.534Z,18.9
2019-04-22T15:43:10.995Z,19.1
2019-04-22T15:48:08.267Z,19
2019-04-22T15:53:04.868Z,18.9
2019-04-22T15:58:01.749Z,18.7
2019-04-22T16:02:59.354Z,18.1
2019-04-22T16:07:55.068Z,18.6
2019-04-22T16:12:57.145Z,18.5
2019-04-22T16:17:48.957Z,18.4
2019-04-22T16:22:47.341Z,18.3
2019-04-22T16:27:44.761Z,18.2
2019-04-22T16:32:41.623Z,18.1
2019-04-22T16:37:38.965Z,18
2019-04-22T16:42:42.725Z,18
2019-04-22T16:47:33.320Z,17.5
2019-04-22T16:52:30.306Z,17.8
2019-04-22T16:57:28.099Z,17.7
2019-04-22T17:02:24.581Z,17.6
2019-04-22T17:07:22.352Z,17.4
2019-04-22T17:12:19.445Z,17.5
2019-04-22T17:17:15.061Z,17.4
2019-04-22T17:22:13.317Z,16.8
2019-04-22T17:27:10.577Z,17.2
2019-04-22T17:32:11.671Z,17.1
2019-04-22T17:37:11.195Z,17
2019-04-22T17:42:22.007Z,16.9
2019-04-22T17:47:08.136Z,16.9
2019-04-22T17:52:16.706Z,16.6
2019-04-22T17:57:09.168Z,16.8
2019-04-22T18:02:06.353Z,16.7
2019-04-22T18:07:11.901Z,16.6
2019-04-22T18:12:11.389Z,16.6
2019-04-22T18:17:00.002Z,16.5
2019-04-22T18:21:51.466Z,16.5
2019-04-22T18:26:53.024Z,16.4
2019-04-22T18:31:41.730Z,16.3
2019-04-22T18:36:40.224Z,14.8
2019-04-22T18:41:43.753Z,16.2
2019-04-22T18:46:40.499Z,16.1
2019-04-22T18:51:42.085Z,16.1
2019-04-22T18:56:32.227Z,16
2019-04-22T19:01:12.850Z,16
2019-04-22T19:06:45.820Z,15.6
2019-04-22T19:11:25.571Z,15.9
2019-04-22T19:16:39.378Z,15.9
2019-04-22T19:21:19.132Z,15.3
2019-04-22T19:26:29.890Z,15.8
2019-04-22T19:31:18.619Z,15.7
2019-04-22T19:36:14.152Z,15.6
2019-04-22T19:41:19.331Z,15.6
2019-04-22T19:46:07.037Z,15.6
2019-04-22T19:51:08.742Z,15.5
2019-04-22T19:55:59.587Z,14.9
2019-04-22T20:00:50.566Z,14.9
2019-04-22T20:10:49.871Z,15.4
2019-04-22T20:15:43.172Z,15.3
2019-04-22T20:20:52.404Z,14.7
2019-04-22T20:25:40.536Z,15.2
2019-04-22T20:35:38.570Z,15
2019-04-22T20:40:33.003Z,14.9
2019-04-22T20:45:34.650Z,14.9
2019-04-22T20:50:28.911Z,14.8
2019-04-22T20:55:18.989Z,14.8
2019-04-22T21:00:19.490Z,14.7
2019-04-22T21:05:16.602Z,14.1
2019-04-22T21:10:15.483Z,14.6
2019-04-22T21:15:19.211Z,14.6
2019-04-22T21:20:17.060Z,14.5
2019-04-22T21:25:05.763Z,14.5
2019-04-22T21:30:01.464Z,14.4
2019-04-22T21:35:05.514Z,14.4
2019-04-22T21:39:56.146Z,14.3
2019-04-22T21:44:55.518Z,14.3
2019-04-22T21:50:11.033Z,14.2
2019-04-22T21:54:58.905Z,14
2019-04-22T21:59:50.859Z,14.1
2019-04-22T22:04:43.994Z,14.1
2019-04-22T22:09:42.733Z,14
2019-04-22T22:14:37.932Z,14
2019-04-22T22:19:37.615Z,13.9
2019-04-22T22:24:37.961Z,13.6
2019-04-22T22:29:42.897Z,13.8
2019-04-22T22:34:26.401Z,13.8
2019-04-22T22:39:19.263Z,13.1
2019-04-22T22:44:13.978Z,13.6
2019-04-22T22:49:22.710Z,13.6
2019-04-22T22:54:17.370Z,13.2
2019-04-22T22:59:13.974Z,13.5
2019-04-22T23:04:16.000Z,13.4
2019-04-22T23:09:09.212Z,13.2
2019-04-22T23:14:06.762Z,13.3
2019-04-22T23:18:43.747Z,11.9
2019-04-22T23:23:57.256Z,12.7
2019-04-22T23:28:48.356Z,13.2
2019-04-22T23:33:46.163Z,12.9
2019-04-22T23:38:50.327Z,12.9
2019-04-22T23:43:48.281Z,12.5
2019-04-22T23:48:33.368Z,13
